馬祖北竿航空站 - ATIS

METAR RCMT 201100Z 05013KT 9999 SCT015 BKN045 21/14 Q1022 NOSIG RMK A3019(N)=

站台狀態:Online
最後更新:2018-10-20 22:30:03